Dades meteomassalio
Diari Summary for Juliol 26, 2017 Units:  English    Metric   Both
« Previous Day
Next Day »
Diari Semanal Mensual Anual Personalitzat
  Maxima: Minima: Mijana:
Temperatura: TemperatureC °F 16.6 °F 23.3 °F
Rosada: DewpointC °F 9.8 °F 11.3 °F
Humitat: Humidity % 29 % 49 %
Velocitat del vent: WindSpeedKMH mph 0.0 mph 19.9 mph
Racha vent: WindSpeedGustKMH mph - -
Vent:- - WNW
Pressio: PressurehPa in 1012.1 in -
Pluja: 0.0 in    
Historical Graphs
 
 
Tabular Data for Juliol 26, 2017
Time Temperature Dew Point Pressure Wind Wind Speed Wind Gust Humidity Rainfall Rate (Hourly) solar Conditions
TemperatureC °F DewpointC °F PressurehPa in Calm     Humidity % HourlyPrecipMM in SolarRadiationWatts/m^2 W/m2 Conditions
00:00 19.7 °F 10.7 °F 1015.8 in West 27.4 mph 27.4 mph 56 % 0.0 in 0.0 W/m2 CLR
00:05 19.6 °F 10.6 °F 1015.8 in West 31.5 mph 31.5 mph 56 % 0.0 in 0.0 W/m2 CLR
00:10 19.5 °F 10.5 °F 1015.8 in WNW 25.7 mph 25.7 mph 56 % 0.0 in 0.0 W/m2 CLR
00:15 19.4 °F 10.4 °F 1015.5 in West 31.5 mph 31.5 mph 56 % 0.0 in 0.0 W/m2 CLR
00:20 19.3 °F 10.6 °F 1015.5 in West 20.4 mph 20.4 mph 57 % 0.0 in 0.0 W/m2 CLR
00:25 19.3 °F 10.6 °F 1015.5 in West 27.4 mph 27.4 mph 57 % 0.0 in 0.0 W/m2 CLR
00:30 19.3 °F 10.6 °F 1015.5 in WSW 31.5 mph 31.5 mph 57 % 0.0 in 0.0 W/m2 CLR
00:35 19.3 °F 10.6 °F 1015.8 in WNW 25.7 mph 25.7 mph 57 % 0.0 in 0.0 W/m2 CLR
00:40 19.2 °F 10.5 °F 1015.8 in WNW 25.9 mph 25.9 mph 57 % 0.0 in 0.0 W/m2 CLR
00:45 19.2 °F 10.5 °F 1016.1 in West 35.2 mph 35.2 mph 57 % 0.0 in 0.0 W/m2 CLR
00:50 19.1 °F 10.7 °F 1016.1 in West 20.4 mph 20.4 mph 58 % 0.0 in 0.0 W/m2 CLR
00:55 19.1 °F 10.6 °F 1015.8 in WNW 31.5 mph 31.5 mph 58 % 0.0 in 0.0 W/m2 CLR
01:00 19.0 °F 10.6 °F 1015.8 in WNW 33.3 mph 33.3 mph 58 % 0.0 in 0.0 W/m2 CLR
01:05 18.9 °F 10.5 °F 1015.8 in West 33.3 mph 33.3 mph 58 % 0.0 in 0.0 W/m2 CLR
01:10 18.8 °F 10.7 °F 1015.8 in West 27.8 mph 27.8 mph 59 % 0.0 in 0.0 W/m2 CLR
01:11 18.8 °F 10.7 °F 1015.8 in West 29.6 mph 29.6 mph 59 % 0.0 in 0.0 W/m2 CLR
01:16 18.7 °F 10.8 °F 1015.8 in West 24.1 mph 24.1 mph 60 % 0.0 in 0.0 W/m2 CLR
01:21 18.7 °F 10.7 °F 1015.8 in West 31.5 mph 31.5 mph 60 % 0.0 in 0.0 W/m2 CLR
01:26 18.6 °F 10.7 °F 1015.8 in West 20.9 mph 20.9 mph 60 % 0.0 in 0.0 W/m2 CLR
01:31 18.5 °F 10.8 °F 1015.8 in WNW 31.5 mph 31.5 mph 61 % 0.0 in 0.0 W/m2 CLR
01:36 18.4 °F 10.7 °F 1015.8 in West 31.5 mph 31.5 mph 61 % 0.0 in 0.0 W/m2 CLR
01:41 18.3 °F 10.7 °F 1015.8 in West 25.9 mph 25.9 mph 61 % 0.0 in 0.0 W/m2 CLR
01:46 18.3 °F 10.7 °F 1015.8 in West 29.6 mph 29.6 mph 61 % 0.0 in 0.0 W/m2 CLR
01:48 18.3 °F 10.7 °F 1015.8 in West 25.9 mph 25.9 mph 61 % 0.0 in 0.0 W/m2 CLR
01:53 18.3 °F 10.9 °F 1015.8 in WNW 29.6 mph 29.6 mph 62 % 0.0 in 0.0 W/m2 CLR
01:58 18.2 °F 10.6 °F 1015.8 in West 25.9 mph 25.9 mph 61 % 0.0 in 0.0 W/m2 CLR
02:03 18.2 °F 10.5 °F 1015.8 in West 20.4 mph 20.4 mph 61 % 0.0 in 0.0 W/m2 CLR
02:08 18.1 °F 10.4 °F 1015.8 in West 18.5 mph 18.5 mph 61 % 0.0 in 0.0 W/m2 CLR
02:13 18.1 °F 10.4 °F 1015.5 in West 29.6 mph 29.6 mph 61 % 0.0 in 0.0 W/m2 CLR
02:18 18.1 °F 10.4 °F 1015.5 in WSW 11.1 mph 11.1 mph 61 % 0.0 in 0.0 W/m2 CLR
02:23 18.0 °F 10.4 °F 1015.5 in West 25.9 mph 25.9 mph 61 % 0.0 in 0.0 W/m2 CLR
02:28 18.0 °F 10.4 °F 1015.5 in WSW 27.8 mph 27.8 mph 61 % 0.0 in 0.0 W/m2 CLR
02:33 17.9 °F 10.3 °F 1015.5 in West 20.9 mph 20.9 mph 61 % 0.0 in 0.0 W/m2 CLR
02:36 18.0 °F 10.4 °F 1015.5 in WNW 25.9 mph 25.9 mph 61 % 0.0 in 0.0 W/m2 CLR
02:41 18.0 °F 10.4 °F 1015.5 in West 29.6 mph 29.6 mph 61 % 0.0 in 0.0 W/m2 CLR
02:46 18.0 °F 10.4 °F 1015.5 in West 29.6 mph 29.6 mph 61 % 0.0 in 0.0 W/m2 CLR
02:51 18.0 °F 10.4 °F 1015.5 in West 25.9 mph 25.9 mph 61 % 0.0 in 0.0 W/m2 CLR
02:56 18.0 °F 10.4 °F 1015.1 in West 37.0 mph 37.0 mph 61 % 0.0 in 0.0 W/m2 CLR
03:01 18.0 °F 10.4 °F 1015.1 in West 37.0 mph 37.0 mph 61 % 0.0 in 0.0 W/m2 CLR
03:06 17.9 °F 10.3 °F 1015.5 in West 24.1 mph 24.1 mph 61 % 0.0 in 0.0 W/m2 CLR
03:11 17.9 °F 10.5 °F 1015.5 in West 18.5 mph 18.5 mph 62 % 0.0 in 0.0 W/m2 CLR
03:17 17.8 °F 10.4 °F 1015.5 in West 14.5 mph 14.5 mph 62 % 0.0 in 0.0 W/m2 CLR
03:22 17.7 °F 10.3 °F 1015.5 in West 5.6 mph 5.6 mph 62 % 0.0 in 0.0 W/m2 CLR
03:27 17.6 °F 10.5 °F 1015.5 in SW 11.1 mph 11.1 mph 63 % 0.0 in 0.0 W/m2 CLR
03:32 17.6 °F 10.4 °F 1015.5 in WNW 16.7 mph 16.7 mph 63 % 0.0 in 0.0 W/m2 CLR
03:37 17.6 °F 10.4 °F 1015.5 in West 13.0 mph 13.0 mph 63 % 0.0 in 0.0 W/m2 CLR
03:42 17.6 °F 10.7 °F 1015.5 in West 24.1 mph 24.1 mph 64 % 0.0 in 0.0 W/m2 CLR
03:47 17.6 °F 10.7 °F 1015.5 in West 16.7 mph 16.7 mph 64 % 0.0 in 0.0 W/m2 CLR
03:52 17.4 °F 10.6 °F 1015.5 in West 22.2 mph 22.2 mph 64 % 0.0 in 0.0 W/m2 CLR
03:57 17.5 °F 10.6 °F 1015.5 in West 20.4 mph 20.4 mph 64 % 0.0 in 0.0 W/m2 CLR
04:02 17.5 °F 10.6 °F 1015.5 in West 18.5 mph 18.5 mph 64 % 0.0 in 0.0 W/m2 CLR
04:03 17.5 °F 10.6 °F 1015.5 in West 18.5 mph 18.5 mph 64 % 0.0 in 0.0 W/m2 CLR
04:08 17.4 °F 10.6 °F 1015.5 in West 18.5 mph 18.5 mph 64 % 0.0 in 0.0 W/m2 CLR
04:13 17.4 °F 10.6 °F 1015.5 in West 18.5 mph 18.5 mph 64 % 0.0 in 0.0 W/m2 CLR
04:18 17.4 °F 10.6 °F 1015.5 in WNW 16.7 mph 16.7 mph 64 % 0.0 in 0.0 W/m2 CLR
04:23 17.4 °F 10.6 °F 1015.5 in West 18.5 mph 18.5 mph 64 % 0.0 in 0.0 W/m2 CLR
04:28 17.4 °F 10.6 °F 1015.5 in West 14.8 mph 14.8 mph 64 % 0.0 in 0.0 W/m2 CLR
04:33 17.4 °F 10.6 °F 1015.5 in WNW 24.1 mph 24.1 mph 64 % 0.0 in 0.0 W/m2 CLR
04:38 17.4 °F 10.6 °F 1015.5 in West 19.3 mph 19.3 mph 64 % 0.0 in 0.0 W/m2 CLR
04:43 17.4 °F 10.7 °F 1015.5 in West 16.7 mph 16.7 mph 65 % 0.0 in 0.0 W/m2 CLR
04:48 17.4 °F 10.7 °F 1015.5 in WNW 18.5 mph 18.5 mph 65 % 0.0 in 0.0 W/m2 CLR
04:53 17.3 °F 10.7 °F 1015.5 in WNW 16.7 mph 16.7 mph 65 % 0.0 in 0.0 W/m2 CLR
04:58 17.2 °F 10.6 °F 1015.5 in West 17.7 mph 17.7 mph 65 % 0.0 in 0.0 W/m2 CLR
05:03 17.2 °F 10.8 °F 1015.1 in West 16.7 mph 16.7 mph 66 % 0.0 in 0.0 W/m2 CLR
05:08 17.1 °F 10.7 °F 1015.1 in West 29.0 mph 29.0 mph 66 % 0.0 in 0.0 W/m2 CLR
05:13 17.1 °F 10.7 °F 1015.5 in West 20.4 mph 20.4 mph 66 % 0.0 in 0.0 W/m2 CLR
05:18 17.1 °F 10.7 °F 1015.5 in West 25.9 mph 25.9 mph 66 % 0.0 in 0.0 W/m2 CLR
05:23 17.1 °F 10.7 °F 1015.5 in WSW 9.3 mph 9.3 mph 66 % 0.0 in 0.0 W/m2 CLR
05:28 17.0 °F 10.6 °F 1015.5 in WSW 14.8 mph 14.8 mph 66 % 0.0 in 0.0 W/m2 CLR
05:33 17.0 °F 10.6 °F 1015.5 in West 5.6 mph 5.6 mph 66 % 0.0 in 0.0 W/m2 CLR
05:38 16.9 °F 10.6 °F 1015.5 in WNW 20.4 mph 20.4 mph 66 % 0.0 in 0.0 W/m2 CLR
05:43 16.9 °F 10.6 °F 1015.5 in West 7.4 mph 7.4 mph 66 % 0.0 in 0.0 W/m2 CLR
05:48 16.9 °F 10.6 °F 1015.5 in West 20.4 mph 20.4 mph 66 % 0.0 in 0.0 W/m2 CLR
05:53 16.9 °F 10.6 °F 1015.5 in West 18.5 mph 18.5 mph 66 % 0.0 in 0.0 W/m2 CLR
05:58 16.9 °F 10.5 °F 1015.5 in West 18.5 mph 18.5 mph 66 % 0.0 in 0.0 W/m2 CLR
06:04 16.9 °F 10.5 °F 1015.5 in WNW 20.4 mph 20.4 mph 66 % 0.0 in 0.0 W/m2 CLR
06:09 16.9 °F 10.5 °F 1015.5 in West 20.9 mph 20.9 mph 66 % 0.0 in 0.0 W/m2 CLR
06:14 16.8 °F 10.4 °F 1015.5 in WNW 16.7 mph 16.7 mph 66 % 0.0 in 0.0 W/m2 CLR
06:19 16.8 °F 10.4 °F 1015.8 in WNW 18.5 mph 18.5 mph 66 % 0.0 in 0.0 W/m2 CLR
06:24 16.8 °F 10.6 °F 1015.8 in NW 19.3 mph 19.3 mph 67 % 0.0 in 0.0 W/m2 CLR
06:29 16.7 °F 10.6 °F 1015.8 in WNW 13.0 mph 13.0 mph 67 % 0.0 in 0.0 W/m2 CLR
06:34 16.7 °F 10.6 °F 1015.8 in WNW 16.1 mph 17.1 mph 67 % 0.0 in 0.0 W/m2 CLR
06:39 16.8 °F 10.6 °F 1015.8 in WNW 22.2 mph 22.2 mph 67 % 0.0 in 0.0 W/m2 CLR
06:44 16.7 °F 10.6 °F 1015.8 in NW 20.9 mph 20.9 mph 67 % 0.0 in 5.0 W/m2 OVC
06:49 16.7 °F 10.6 °F 1015.8 in WNW 18.5 mph 18.5 mph 67 % 0.0 in 0.0 W/m2 OVC
06:54 16.7 °F 10.6 °F 1015.8 in NW 14.8 mph 14.8 mph 67 % 0.0 in 5.0 W/m2 OVC
06:59 16.7 °F 10.5 °F 1015.8 in WNW 13.0 mph 13.0 mph 67 % 0.0 in 9.0 W/m2 BKN
07:04 16.6 °F 10.4 °F 1015.8 in WNW 11.1 mph 11.1 mph 67 % 0.0 in 12.0 W/m2 BKN
07:09 16.6 °F 10.7 °F 1015.8 in West 14.8 mph 14.8 mph 68 % 0.0 in 18.0 W/m2 BKN
07:14 16.6 °F 10.7 °F 1015.8 in West 13.0 mph 13.0 mph 68 % 0.0 in 25.0 W/m2 BKN
07:19 16.7 °F 10.8 °F 1015.8 in WNW 13.0 mph 13.0 mph 68 % 0.0 in 28.0 W/m2 BKN
07:24 16.8 °F 10.6 °F 1015.8 in West 11.1 mph 11.1 mph 67 % 0.0 in 35.0 W/m2 BKN
07:29 16.9 °F 10.7 °F 1015.8 in West 18.5 mph 18.5 mph 67 % 0.0 in 39.0 W/m2 BKN
07:34 17.0 °F 10.8 °F 1015.8 in Calm     67 % 0.0 in 39.0 W/m2 BKN
07:39 17.1 °F 10.7 °F 1015.8 in West 14.8 mph 14.8 mph 66 % 0.0 in 49.0 W/m2 SCT
07:44 17.1 °F 10.7 °F 1015.8 in WNW 11.1 mph 11.1 mph 66 % 0.0 in 60.0 W/m2 SCT
07:49 17.1 °F 10.9 °F 1016.1 in NW 27.4 mph 27.4 mph 67 % 0.0 in 83.0 W/m2 FEW
07:54 17.2 °F 10.8 °F 1016.1 in NW 16.7 mph 16.7 mph 66 % 0.0 in 90.0 W/m2 FEW
07:59 17.3 °F 10.9 °F 1016.1 in WNW 17.7 mph 17.7 mph 66 % 0.0 in 100.0 W/m2 CLR
08:04 17.4 °F 10.7 °F 1016.1 in WNW 22.2 mph 22.2 mph 65 % 0.0 in 104.0 W/m2 CLR
08:09 17.5 °F 10.8 °F 1016.1 in West 20.4 mph 20.4 mph 65 % 0.0 in 123.0 W/m2 CLR
08:14 17.6 °F 10.9 °F 1016.1 in WNW 25.9 mph 25.9 mph 65 % 0.0 in 158.0 W/m2 CLR
08:19 17.7 °F 11.1 °F 1016.1 in West 20.4 mph 20.4 mph 65 % 0.0 in 171.0 W/m2 CLR
08:24 17.8 °F 10.9 °F 1016.1 in WNW 27.8 mph 27.8 mph 64 % 0.0 in 181.0 W/m2 CLR
08:29 17.9 °F 11.0 °F 1016.1 in WNW 22.2 mph 22.2 mph 64 % 0.0 in 211.0 W/m2 CLR
08:34 18.0 °F 11.1 °F 1016.1 in WNW 20.4 mph 20.4 mph 64 % 0.0 in 241.0 W/m2 CLR
08:39 18.1 °F 11.2 °F 1016.1 in West 22.2 mph 22.2 mph 64 % 0.0 in 258.0 W/m2 CLR
08:44 18.2 °F 11.1 °F 1016.1 in NW 20.4 mph 20.4 mph 63 % 0.0 in 234.0 W/m2 CLR
08:49 18.3 °F 11.1 °F 1016.1 in NW 18.5 mph 18.5 mph 63 % 0.0 in 285.0 W/m2 CLR
08:54 18.4 °F 11.3 °F 1016.1 in WNW 18.5 mph 18.5 mph 63 % 0.0 in 276.0 W/m2 CLR
08:59 18.4 °F 11.2 °F 1016.1 in NW 22.2 mph 22.2 mph 63 % 0.0 in 288.0 W/m2 CLR
09:04 18.6 °F 11.4 °F 1016.1 in WNW 18.5 mph 18.5 mph 63 % 0.0 in 288.0 W/m2 CLR
09:09 18.6 °F 11.2 °F 1016.1 in WNW 16.7 mph 16.7 mph 62 % 0.0 in 292.0 W/m2 CLR
09:14 18.8 °F 11.4 °F 1016.1 in WNW 18.5 mph 18.5 mph 62 % 0.0 in 302.0 W/m2 CLR
09:19 19.0 °F 11.3 °F 1016.1 in NW 27.8 mph 27.8 mph 61 % 0.0 in 338.0 W/m2 CLR
09:24 19.0 °F 11.3 °F 1016.1 in NW 18.5 mph 18.5 mph 61 % 0.0 in 366.0 W/m2 CLR
09:29 19.1 °F 11.1 °F 1016.1 in NW 27.8 mph 27.8 mph 60 % 0.0 in 376.0 W/m2 CLR
09:34 19.1 °F 11.4 °F 1016.1 in NW 22.5 mph 22.5 mph 61 % 0.0 in 404.0 W/m2 CLR
09:35 19.1 °F 11.4 °F 1016.1 in WNW 24.1 mph 24.1 mph 61 % 0.0 in 404.0 W/m2 CLR
09:40 19.3 °F 11.6 °F 1016.1 in WNW 16.7 mph 17.2 mph 61 % 0.0 in 432.0 W/m2 CLR
09:45 19.6 °F 11.3 °F 1016.1 in NNW 24.1 mph 24.1 mph 59 % 0.0 in 473.0 W/m2 CLR
09:50 19.3 °F 11.4 °F 1016.1 in NW 31.5 mph 31.5 mph 60 % 0.0 in 476.0 W/m2 CLR
09:55 19.5 °F 11.5 °F 1016.1 in WNW 20.4 mph 20.4 mph 60 % 0.0 in 316.0 W/m2 CLR
10:00 19.7 °F 11.2 °F 1016.5 in NW 27.8 mph 27.8 mph 58 % 0.0 in 190.0 W/m2 CLR
10:05 20.0 °F 11.5 °F 1016.1 in NW 24.1 mph 24.1 mph 58 % 0.0 in 461.0 W/m2 CLR
10:10 20.1 °F 11.6 °F 1016.1 in NW 27.8 mph 27.8 mph 58 % 0.0 in 524.0 W/m2 CLR
10:15 20.0 °F 11.5 °F 1016.5 in WNW 27.8 mph 27.8 mph 58 % 0.0 in 529.0 W/m2 CLR
10:20 20.1 °F 11.3 °F 1016.1 in NW 29.6 mph 29.6 mph 57 % 0.0 in 548.0 W/m2 CLR
10:25 20.3 °F 11.2 °F 1016.1 in NW 27.8 mph 27.8 mph 56 % 0.0 in 582.0 W/m2 CLR
10:30 20.4 °F 11.4 °F 1016.1 in NNW 27.8 mph 27.8 mph 56 % 0.0 in 589.0 W/m2 CLR
10:35 20.5 °F 11.4 °F 1016.1 in NW 20.4 mph 20.4 mph 56 % 0.0 in 608.0 W/m2 CLR
10:40 20.7 °F 11.6 °F 1016.1 in NW 18.5 mph 18.5 mph 56 % 0.0 in 612.0 W/m2 CLR
10:45 20.9 °F 11.6 °F 1016.1 in NW 18.5 mph 18.5 mph 55 % 0.0 in 624.0 W/m2 CLR
10:50 21.1 °F 11.4 °F 1015.8 in NNW 27.8 mph 27.8 mph 54 % 0.0 in 629.0 W/m2 CLR
10:55 21.1 °F 11.4 °F 1015.8 in NW 24.1 mph 24.1 mph 54 % 0.0 in 659.0 W/m2 CLR
11:00 21.3 °F 11.3 °F 1015.8 in NNW 25.9 mph 25.9 mph 53 % 0.0 in 656.0 W/m2 CLR
11:05 21.4 °F 11.4 °F 1015.8 in NNW 24.1 mph 24.1 mph 53 % 0.0 in 670.0 W/m2 CLR
11:10 21.5 °F 11.5 °F 1015.8 in NW 20.4 mph 20.4 mph 53 % 0.0 in 657.0 W/m2 CLR
11:15 21.6 °F 11.6 °F 1015.8 in West 16.7 mph 16.7 mph 53 % 0.0 in 705.0 W/m2 CLR
11:20 21.7 °F 12.0 °F 1015.8 in NW 20.4 mph 20.4 mph 54 % 0.0 in 721.0 W/m2 CLR
11:25 22.1 °F 11.8 °F 1015.8 in NW 22.2 mph 22.2 mph 52 % 0.0 in 731.0 W/m2 CLR
11:30 22.3 °F 11.7 °F 1015.8 in NW 16.7 mph 16.7 mph 51 % 0.0 in 722.0 W/m2 CLR
11:35 22.4 °F 11.5 °F 1015.8 in West 18.5 mph 18.5 mph 50 % 0.0 in 726.0 W/m2 CLR
11:40 22.6 °F 11.3 °F 1015.8 in NW 30.6 mph 30.6 mph 49 % 0.0 in 756.0 W/m2 CLR
11:45 22.7 °F 11.7 °F 1015.8 in NW 22.2 mph 22.2 mph 50 % 0.0 in 761.0 W/m2 CLR
11:50 22.7 °F 11.8 °F 1015.8 in NNW 1.9 mph 1.9 mph 50 % 0.0 in 754.0 W/m2 CLR
11:55 22.6 °F 11.3 °F 1015.8 in NW 27.8 mph 27.8 mph 49 % 0.0 in 791.0 W/m2 CLR
12:00 22.8 °F 11.6 °F 1015.5 in North 20.4 mph 20.4 mph 49 % 0.0 in 777.0 W/m2 CLR
12:05 23.2 °F 11.6 °F 1015.5 in WNW 22.2 mph 22.2 mph 48 % 0.0 in 795.0 W/m2 CLR
12:10 23.1 °F 11.8 °F 1015.8 in WNW 20.4 mph 20.4 mph 49 % 0.0 in 795.0 W/m2 CLR
12:15 23.1 °F 11.8 °F 1015.5 in NW 17.7 mph 17.7 mph 49 % 0.0 in 798.0 W/m2 CLR
12:20 23.6 °F 11.6 °F 1015.5 in WNW 16.7 mph 16.7 mph 47 % 0.0 in 833.0 W/m2 CLR
12:25 23.8 °F 11.5 °F 1015.5 in WNW 22.2 mph 22.2 mph 46 % 0.0 in 830.0 W/m2 CLR
12:30 23.8 °F 11.5 °F 1015.5 in WSW 7.4 mph 7.4 mph 46 % 0.0 in 844.0 W/m2 CLR
12:35 24.0 °F 11.7 °F 1015.5 in SSW 9.3 mph   46 % 0.0 in 840.0 W/m2 CLR
12:40 24.4 °F 11.7 °F 1015.5 in NNW 27.8 mph 27.8 mph 45 % 0.0 in 812.0 W/m2 CLR
12:45 24.4 °F 11.3 °F 1015.1 in NNW 14.5 mph 14.5 mph 44 % 0.0 in 881.0 W/m2 CLR
12:50 24.6 °F 11.6 °F 1015.1 in NNW 29.6 mph 29.6 mph 44 % 0.0 in 877.0 W/m2 CLR
12:55 24.7 °F 11.3 °F 1015.1 in NW 25.9 mph 25.9 mph 43 % 0.0 in 889.0 W/m2 CLR
13:00 24.8 °F 11.1 °F 1015.1 in WNW 24.1 mph 24.1 mph 42 % 0.0 in 898.0 W/m2 CLR
13:05 25.1 °F 10.9 °F 1015.1 in NNW 24.1 mph 24.1 mph 41 % 0.0 in 870.0 W/m2 CLR
13:10 25.4 °F 10.8 °F 1014.8 in NNW 22.2 mph 22.2 mph 40 % 0.0 in 868.0 W/m2 CLR
13:15 25.4 °F 10.4 °F 1014.8 in NNW 27.8 mph 27.8 mph 39 % 0.0 in 888.0 W/m2 CLR
13:20 25.4 °F 10.4 °F 1014.8 in NW 25.9 mph 25.9 mph 39 % 0.0 in 870.0 W/m2 CLR
13:25 25.8 °F 10.4 °F 1014.8 in NW 25.9 mph 25.9 mph 38 % 0.0 in 926.0 W/m2 CLR
13:30 26.0 °F 10.6 °F 1014.8 in WNW 18.5 mph 18.5 mph 38 % 0.0 in 898.0 W/m2 CLR
13:31 26.1 °F 10.7 °F 1014.8 in NNW 14.5 mph 14.5 mph 38 % 0.0 in 898.0 W/m2 CLR
13:36 26.3 °F 10.5 °F 1014.8 in NW 22.2 mph 22.2 mph 37 % 0.0 in 919.0 W/m2 CLR
13:41 26.1 °F 10.3 °F 1014.8 in North 22.2 mph 22.2 mph 37 % 0.0 in 905.0 W/m2 CLR
13:45 26.3 °F 10.8 °F 1014.8 in NW 24.1 mph 24.1 mph 38 % 0.0 in 909.0 W/m2 CLR
13:50 26.6 °F 10.7 °F 1014.8 in WNW 13.0 mph 13.0 mph 37 % 0.0 in 921.0 W/m2 CLR
13:55 26.6 °F 10.7 °F 1014.4 in NW 20.4 mph 20.4 mph 37 % 0.0 in 925.0 W/m2 CLR
14:00 26.8 °F 10.4 °F 1014.4 in WNW 20.9 mph 20.9 mph 36 % 0.0 in 889.0 W/m2 CLR
14:05 27.0 °F 10.2 °F 1014.1 in WNW 20.9 mph 20.9 mph 35 % 0.0 in 895.0 W/m2 CLR
14:10 27.1 °F 10.3 °F 1014.1 in WNW 18.5 mph 18.5 mph 35 % 0.0 in 914.0 W/m2 CLR
14:15 27.3 °F 10.5 °F 1014.1 in NNW 20.4 mph 20.4 mph 35 % 0.0 in 853.0 W/m2 CLR
14:20 27.3 °F 10.5 °F 1014.1 in NW 20.9 mph 20.9 mph 35 % 0.0 in 898.0 W/m2 CLR
14:25 27.5 °F 10.2 °F 1014.1 in NW 24.1 mph 24.1 mph 34 % 0.0 in 879.0 W/m2 CLR
14:30 27.6 °F 9.9 °F 1014.1 in North 20.4 mph 20.4 mph 33 % 0.0 in 874.0 W/m2 CLR
14:35 27.9 °F 10.1 °F 1014.1 in NNW 22.2 mph 22.2 mph 33 % 0.0 in 916.0 W/m2 CLR
14:40 28.1 °F 9.8 °F 1014.1 in North 24.1 mph 24.1 mph 32 % 0.0 in 902.0 W/m2 CLR
14:45 28.4 °F 10.2 °F 1013.8 in NW 27.8 mph 27.8 mph 32 % 0.0 in 867.0 W/m2 CLR
14:50 28.5 °F 10.2 °F 1013.8 in NNW 31.5 mph 31.5 mph 32 % 0.0 in 868.0 W/m2 CLR
14:55 28.3 °F 10.5 °F 1013.8 in NNW 24.1 mph 24.1 mph 33 % 0.0 in 870.0 W/m2 CLR
15:00 28.3 °F 10.4 °F 1013.8 in NW 13.0 mph 13.0 mph 33 % 0.0 in 877.0 W/m2 CLR
15:05 28.3 °F 10.5 °F 1013.8 in NW 31.5 mph 31.5 mph 33 % 0.0 in 844.0 W/m2 CLR
15:10 28.3 °F 10.9 °F 1013.8 in NNW 29.0 mph 29.0 mph 34 % 0.0 in 847.0 W/m2 CLR
15:15 28.3 °F 10.9 °F 1013.8 in NW 31.5 mph 31.5 mph 34 % 0.0 in 835.0 W/m2 CLR
15:20 28.6 °F 11.7 °F 1013.8 in NW 22.2 mph 22.2 mph 35 % 0.0 in 837.0 W/m2 CLR
15:25 28.9 °F 11.4 °F 1013.8 in NNW 20.9 mph 20.9 mph 34 % 0.0 in 844.0 W/m2 CLR
15:30 28.8 °F 11.8 °F 1013.8 in North 31.5 mph 31.5 mph 35 % 0.0 in 791.0 W/m2 CLR
15:35 28.7 °F 11.7 °F 1013.4 in North 22.2 mph 22.2 mph 35 % 0.0 in 860.0 W/m2 CLR
15:40 28.8 °F 11.8 °F 1013.8 in WNW 22.2 mph 22.2 mph 35 % 0.0 in 861.0 W/m2 CLR
15:45 28.9 °F 11.9 °F 1013.8 in NNW 31.5 mph 31.5 mph 35 % 0.0 in 795.0 W/m2 CLR
15:50 28.9 °F 11.9 °F 1013.4 in NNW 18.5 mph 18.5 mph 35 % 0.0 in 793.0 W/m2 CLR
15:55 28.8 °F 11.8 °F 1013.4 in NNW 14.8 mph 14.8 mph 35 % 0.0 in 807.0 W/m2 CLR
16:00 29.1 °F 12.1 °F 1013.4 in NNE 20.4 mph 20.4 mph 35 % 0.0 in 830.0 W/m2 CLR
16:02 29.2 °F 11.7 °F 1013.4 in North 20.4 mph 20.4 mph 34 % 0.0 in 791.0 W/m2 CLR
16:07 29.3 °F 11.8 °F 1013.4 in NW 27.8 mph 27.8 mph 34 % 0.0 in 819.0 W/m2 CLR
16:12 29.4 °F 12.4 °F 1013.4 in WNW 24.1 mph 24.1 mph 35 % 0.0 in 761.0 W/m2 CLR
16:17 29.3 °F 12.3 °F 1013.4 in NNW 20.9 mph 20.9 mph 35 % 0.0 in 698.0 W/m2 CLR
16:22 29.3 °F 11.8 °F 1013.1 in WNW 18.5 mph 18.5 mph 34 % 0.0 in 698.0 W/m2 CLR
16:27 29.4 °F 11.9 °F 1013.1 in NNW 24.1 mph 24.1 mph 34 % 0.0 in 773.0 W/m2 CLR
16:32 29.3 °F 12.3 °F 1013.1 in NNW 20.4 mph 20.4 mph 35 % 0.0 in 795.0 W/m2 CLR
16:37 29.6 °F 12.1 °F 1013.1 in NW 22.2 mph 22.2 mph 34 % 0.0 in 664.0 W/m2 CLR
16:42 29.7 °F 12.2 °F 1013.1 in NW 16.7 mph 16.7 mph 34 % 0.0 in 666.0 W/m2 CLR
16:47 30.2 °F 12.6 °F 1013.1 in North 5.6 mph 5.6 mph 34 % 0.0 in 691.0 W/m2 CLR
16:52 30.2 °F 12.1 °F 1013.1 in Calm     33 % 0.0 in 657.0 W/m2 CLR
16:57 30.3 °F 12.3 °F 1012.8 in NNW 5.6 mph 5.6 mph 33 % 0.0 in 682.0 W/m2 CLR
17:02 30.3 °F 12.2 °F 1012.8 in West 5.6 mph 5.6 mph 33 % 0.0 in 621.0 W/m2 CLR
17:07 30.4 °F 11.9 °F 1012.8 in NW 29.6 mph 29.6 mph 32 % 0.0 in 645.0 W/m2 CLR
17:12 30.3 °F 11.8 °F 1012.4 in NNW 24.1 mph 24.1 mph 32 % 0.0 in 694.0 W/m2 CLR
17:17 30.6 °F 12.4 °F 1012.4 in North 18.5 mph 18.5 mph 33 % 0.0 in 624.0 W/m2 CLR
17:22 30.7 °F 12.1 °F 1012.4 in NW 18.5 mph 18.5 mph 32 % 0.0 in 563.0 W/m2 CLR
17:27 30.8 °F 12.2 °F 1012.4 in North 25.7 mph 25.7 mph 32 % 0.0 in 568.0 W/m2 CLR
17:32 30.6 °F 12.1 °F 1012.4 in NW 5.6 mph 5.6 mph 32 % 0.0 in 527.0 W/m2 CLR
17:37 30.8 °F 11.7 °F 1012.4 in NW 16.7 mph 16.7 mph 31 % 0.0 in 536.0 W/m2 CLR
17:42 31.1 °F 12.0 °F 1012.4 in NNW 4.8 mph 4.8 mph 31 % 0.0 in 522.0 W/m2 CLR
17:47 31.3 °F 12.2 °F 1012.4 in NW 19.3 mph 19.3 mph 31 % 0.0 in 575.0 W/m2 CLR
17:52 31.6 °F 11.9 °F 1012.1 in WNW 16.7 mph 16.7 mph 30 % 0.0 in 598.0 W/m2 CLR
17:57 31.6 °F 11.3 °F 1012.1 in NNW 22.2 mph 22.2 mph 29 % 0.0 in 580.0 W/m2 CLR
18:02 31.5 °F 11.8 °F 1012.4 in NNW 24.1 mph 24.1 mph 30 % 0.0 in 559.0 W/m2 CLR
18:07 31.6 °F 11.9 °F 1012.1 in NW 22.2 mph 22.2 mph 30 % 0.0 in 503.0 W/m2 CLR
18:12 31.3 °F 11.7 °F 1012.1 in North 29.6 mph 29.6 mph 30 % 0.0 in 504.0 W/m2 CLR
18:17 31.2 °F 11.6 °F 1012.1 in NNW 16.7 mph 16.7 mph 30 % 0.0 in 499.0 W/m2 CLR
18:22 31.5 °F 11.8 °F 1012.1 in WNW 24.1 mph 24.1 mph 30 % 0.0 in 454.0 W/m2 CLR
18:27 31.8 °F 12.1 °F 1012.1 in North 25.9 mph 25.9 mph 30 % 0.0 in 436.0 W/m2 CLR
18:32 31.4 °F 12.2 °F 1012.1 in NNW 24.1 mph 24.1 mph 31 % 0.0 in 455.0 W/m2 CLR
18:37 31.2 °F 12.1 °F 1012.1 in NNW 24.1 mph 24.1 mph 31 % 0.0 in 411.0 W/m2 CLR
18:42 31.3 °F 12.2 °F 1012.1 in NNW 20.4 mph 20.4 mph 31 % 0.0 in 396.0 W/m2 CLR
18:47 31.3 °F 12.7 °F 1012.1 in NNE 24.1 mph 24.1 mph 32 % 0.0 in 357.0 W/m2 CLR
18:52 31.3 °F 13.1 °F 1012.1 in NNW 18.5 mph 18.5 mph 33 % 0.0 in 364.0 W/m2 CLR
18:57 31.3 °F 12.7 °F 1012.1 in NNW 5.6 mph 5.6 mph 32 % 0.0 in 311.0 W/m2 CLR
19:02 31.4 °F 13.2 °F 1012.1 in WNW 24.1 mph 24.1 mph 33 % 0.0 in 283.0 W/m2 CLR
19:07 31.4 °F 13.2 °F 1012.1 in NNW 20.4 mph 20.4 mph 33 % 0.0 in 313.0 W/m2 CLR
19:12 31.3 °F 12.7 °F 1012.1 in NNW 29.6 mph 29.6 mph 32 % 0.0 in 338.0 W/m2 CLR
19:17 31.3 °F 13.1 °F 1012.1 in NW 25.7 mph 25.7 mph 33 % 0.0 in 297.0 W/m2 CLR
19:22 31.3 °F 12.6 °F 1012.1 in NNW 25.9 mph 25.9 mph 32 % 0.0 in 253.0 W/m2 CLR
19:27 31.4 °F 12.8 °F 1012.1 in NW 27.4 mph 27.4 mph 32 % 0.0 in 251.0 W/m2 CLR
19:32 31.1 °F 12.9 °F 1012.1 in WNW 27.8 mph 27.8 mph 33 % 0.0 in 211.0 W/m2 CLR
19:37 30.9 °F 12.3 °F 1012.1 in NW 27.8 mph 27.8 mph 32 % 0.0 in 236.0 W/m2 CLR
19:42 30.9 °F 12.7 °F 1012.1 in WNW 20.4 mph 20.4 mph 33 % 0.0 in 221.0 W/m2 CLR
19:47 30.9 °F 12.7 °F 1012.1 in NW 22.5 mph 22.5 mph 33 % 0.0 in 155.0 W/m2 CLR
19:52 30.8 °F 12.7 °F 1012.1 in NW 31.5 mph 31.5 mph 33 % 0.0 in 174.0 W/m2 CLR
19:57 30.7 °F 13.0 °F 1012.1 in NW 25.7 mph 25.7 mph 34 % 0.0 in 193.0 W/m2 CLR
20:02 30.7 °F 13.1 °F 1012.1 in NW 18.5 mph 18.5 mph 34 % 0.0 in 169.0 W/m2 CLR
20:07 30.7 °F 13.1 °F 1012.1 in NNW 29.6 mph 29.6 mph 34 % 0.0 in 149.0 W/m2 CLR
20:12 30.6 °F 13.3 °F 1012.1 in WNW 22.2 mph 22.2 mph 35 % 0.0 in 130.0 W/m2 CLR
20:17 30.6 °F 13.4 °F 1012.1 in NW 18.5 mph 18.5 mph 35 % 0.0 in 121.0 W/m2 CLR
20:22 30.4 °F 13.3 °F 1012.1 in NNW 25.7 mph 25.7 mph 35 % 0.0 in 102.0 W/m2 CLR
20:27 30.4 °F 13.2 °F 1012.1 in NW 25.9 mph 25.9 mph 35 % 0.0 in 88.0 W/m2 CLR
20:32 30.2 °F 13.1 °F 1012.1 in NNW 22.2 mph 22.2 mph 35 % 0.0 in 65.0 W/m2 FEW
20:37 30.2 °F 13.4 °F 1012.4 in NW 19.3 mph 19.3 mph 36 % 0.0 in 62.0 W/m2 SCT
20:42 30.1 °F 13.3 °F 1012.4 in NNW 18.5 mph 18.5 mph 36 % 0.0 in 46.0 W/m2 SCT
20:47 29.9 °F 13.2 °F 1012.4 in NW 20.4 mph 20.4 mph 36 % 0.0 in 35.0 W/m2 BKN
20:52 29.8 °F 13.2 °F 1012.4 in NW 14.8 mph 14.8 mph 36 % 0.0 in 28.0 W/m2 BKN
20:58 29.7 °F 13.0 °F 1012.4 in NNW 9.3 mph 9.3 mph 36 % 0.0 in 23.0 W/m2 BKN
21:03 29.4 °F 13.2 °F 1012.4 in NW 7.4 mph 7.4 mph 37 % 0.0 in 19.0 W/m2 BKN
21:08 29.2 °F 13.1 °F 1012.8 in NW 11.1 mph 11.1 mph 37 % 0.0 in 16.0 W/m2 BKN
21:13 29.0 °F 13.2 °F 1012.8 in NNW 8.0 mph 8.0 mph 38 % 0.0 in 12.0 W/m2 BKN
21:18 28.8 °F 13.1 °F 1012.8 in NW 11.1 mph 11.1 mph 38 % 0.0 in 9.0 W/m2 BKN
21:23 28.7 °F 12.6 °F 1012.8 in NW 9.7 mph 9.8 mph 37 % 0.0 in 5.0 W/m2 OVC
21:28 28.6 °F 12.5 °F 1012.8 in NW 18.5 mph 18.5 mph 37 % 0.0 in 0.0 W/m2 OVC
21:33 28.5 °F 12.0 °F 1013.1 in NW 9.7 mph 9.7 mph 36 % 0.0 in 0.0 W/m2 CLR
21:38 28.3 °F 11.8 °F 1013.1 in WNW 9.3 mph 9.3 mph 36 % 0.0 in 0.0 W/m2 CLR
21:43 28.1 °F 11.6 °F 1013.1 in WNW 9.3 mph 9.3 mph 36 % 0.0 in 0.0 W/m2 CLR
21:48 28.1 °F 11.6 °F 1013.1 in WNW 7.4 mph 7.4 mph 36 % 0.0 in 0.0 W/m2 CLR
21:53 27.9 °F 11.9 °F 1013.1 in WNW 9.7 mph 9.7 mph 37 % 0.0 in 0.0 W/m2 CLR
21:58 27.8 °F 11.8 °F 1013.1 in WNW 9.3 mph 9.3 mph 37 % 0.0 in 0.0 W/m2 CLR
22:03 27.7 °F 11.7 °F 1013.1 in WNW 5.6 mph 5.6 mph 37 % 0.0 in 0.0 W/m2 CLR
22:08 27.5 °F 11.9 °F 1013.4 in WNW 9.3 mph 9.3 mph 38 % 0.0 in 0.0 W/m2 CLR
22:13 27.5 °F 11.5 °F 1013.4 in WNW 9.7 mph 9.7 mph 37 % 0.0 in 0.0 W/m2 CLR
22:18 27.6 °F 11.6 °F 1013.4 in West 13.0 mph 13.0 mph 37 % 0.0 in 0.0 W/m2 CLR
22:23 27.6 °F 11.6 °F 1013.4 in West 13.0 mph 13.0 mph 37 % 0.0 in 0.0 W/m2 CLR
22:28 27.6 °F 11.2 °F 1013.8 in West 13.0 mph 13.0 mph 36 % 0.0 in 0.0 W/m2 CLR
22:33 27.4 °F 11.1 °F 1013.8 in West 13.0 mph 13.0 mph 36 % 0.0 in 0.0 W/m2 CLR
22:38 27.4 °F 11.0 °F 1013.8 in West 14.8 mph 14.8 mph 36 % 0.0 in 0.0 W/m2 CLR
22:48 27.3 °F 10.9 °F 1013.8 in WNW 8.0 mph 8.0 mph 36 % 0.0 in 0.0 W/m2 CLR
22:53 27.1 °F 11.2 °F 1013.8 in WNW 9.3 mph 9.3 mph 37 % 0.0 in 0.0 W/m2 CLR
22:58 26.9 °F 10.9 °F 1013.8 in WNW 3.7 mph 3.7 mph 37 % 0.0 in 0.0 W/m2 CLR
23:03 26.7 °F 11.2 °F 1014.1 in WNW 7.4 mph 7.4 mph 38 % 0.0 in 0.0 W/m2 CLR
23:08 26.6 °F 11.1 °F 1013.8 in West 9.3 mph 9.3 mph 38 % 0.0 in 0.0 W/m2 CLR
23:13 26.6 °F 11.1 °F 1013.8 in West 9.3 mph 9.3 mph 38 % 0.0 in 0.0 W/m2 CLR
23:18 26.6 °F 11.5 °F 1013.8 in West 5.6 mph 5.6 mph 39 % 0.0 in 0.0 W/m2 CLR
23:23 26.4 °F 11.4 °F 1013.8 in Calm     39 % 0.0 in 0.0 W/m2 CLR
23:28 26.2 °F 11.6 °F 1013.8 in WSW 5.6 mph 5.6 mph 40 % 0.0 in 0.0 W/m2 CLR
23:33 25.9 °F 11.6 °F 1013.8 in WSW 7.4 mph 7.4 mph 41 % 0.0 in 0.0 W/m2 CLR
23:38 25.7 °F 11.5 °F 1014.1 in West 11.1 mph 11.1 mph 41 % 0.0 in 0.0 W/m2 CLR
23:43 25.9 °F 11.6 °F 1013.8 in WNW 16.7 mph 16.7 mph 41 % 0.0 in 0.0 W/m2 CLR
23:48 26.1 °F 11.8 °F 1013.8 in West 9.7 mph 9.7 mph 41 % 0.0 in 0.0 W/m2 CLR
23:53 26.1 °F 11.8 °F 1013.8 in WSW 13.0 mph 13.0 mph 41 % 0.0 in 0.0 W/m2 CLR
23:58 25.9 °F 11.7 °F 1014.1 in West 11.1 mph 11.1 mph 41 % 0.0 in 0.0 W/m2 CLR
Lo Temps de Massalio
Compliments of Weather Underground - 1.25 mb